createdAt,value
2017-10-25T10:30:08.955Z,94.74
2017-10-25T10:31:08.957Z,94.74
2017-10-25T10:33:01.833Z,95.12
2017-10-25T10:34:01.828Z,95.12
2017-10-25T10:35:54.734Z,94.88
2017-10-25T10:36:54.712Z,95.17
2017-10-25T10:37:54.707Z,94.21
2017-10-25T10:38:54.708Z,94.59
2017-10-25T10:39:54.709Z,93.92
2017-10-25T10:40:54.707Z,93.82
2017-10-25T10:41:54.705Z,94.59
2017-10-25T10:42:54.705Z,93.82
2017-10-25T10:43:54.703Z,93.15
2017-10-25T10:44:55.206Z,92.68
2017-10-25T10:45:54.707Z,92.00
2017-10-25T10:46:54.701Z,92.72
2017-10-25T10:47:54.702Z,92.43
2017-10-25T10:48:54.697Z,91.96
2017-10-25T10:49:54.704Z,91.19
2017-10-25T10:50:54.697Z,91.19
2017-10-25T10:51:54.699Z,90.99
2017-10-25T10:52:54.702Z,91.76
2017-10-25T10:53:54.695Z,91.09
2017-10-25T10:54:54.694Z,91.19
2017-10-25T10:55:54.694Z,91.09
2017-10-25T10:56:54.687Z,91.28
2017-10-25T10:57:54.695Z,91.47
2017-10-25T10:58:54.692Z,91.47
2017-10-25T10:59:54.692Z,91.38
2017-10-25T11:00:54.693Z,90.80
2017-10-25T11:01:54.691Z,91.28
2017-10-25T11:02:54.687Z,91.24
2017-10-25T11:03:54.689Z,91.28
2017-10-25T11:04:54.689Z,91.05
2017-10-25T11:05:54.687Z,92.24
2017-10-25T11:06:54.688Z,92.43
2017-10-25T11:07:54.684Z,91.86
2017-10-25T11:08:54.687Z,92.14
2017-10-25T11:09:54.685Z,92.14
2017-10-25T11:10:54.682Z,91.96
2017-10-25T11:11:54.681Z,91.28
2017-10-25T11:12:54.681Z,91.28
2017-10-25T11:13:54.690Z,91.19
2017-10-25T11:14:54.681Z,91.57
2017-10-25T11:15:54.685Z,90.42
2017-10-25T11:16:54.678Z,90.94
2017-10-25T11:17:54.678Z,90.66
2017-10-25T11:18:54.682Z,89.98
2017-10-25T11:19:54.678Z,88.93
2017-10-25T11:20:54.683Z,88.45
2017-10-25T11:21:54.677Z,87.96
2017-10-25T11:22:54.677Z,88.73
2017-10-25T11:23:54.677Z,88.10
2017-10-25T11:24:54.727Z,88.20
2017-10-25T11:25:54.675Z,87.53
2017-10-25T11:26:54.674Z,87.05
2017-10-25T11:27:54.680Z,86.57
2017-10-25T11:28:54.678Z,85.99
2017-10-25T11:29:54.705Z,86.18
2017-10-25T11:30:54.680Z,86.18
2017-10-25T11:31:54.682Z,86.18
2017-10-25T11:32:54.680Z,86.57
2017-10-25T11:33:54.696Z,85.94
2017-10-25T11:34:54.682Z,86.80
2017-10-25T11:35:54.692Z,85.84
2017-10-25T11:36:54.683Z,85.27
2017-10-25T11:37:54.679Z,85.94
2017-10-25T11:38:54.685Z,85.84
2017-10-25T11:39:54.687Z,85.71
2017-10-25T11:40:54.688Z,85.36
2017-10-25T11:41:54.688Z,84.69
2017-10-25T11:42:54.690Z,85.17
2017-10-25T11:43:54.692Z,84.50
2017-10-25T11:44:54.692Z,84.11
2017-10-25T11:45:54.692Z,84.11
2017-10-25T11:46:54.695Z,84.01
2017-10-25T11:47:54.701Z,83.92
2017-10-25T11:48:54.696Z,84.11
2017-10-25T11:49:54.694Z,85.07
2017-10-25T11:50:54.698Z,84.30
2017-10-25T11:51:54.700Z,85.07
2017-10-25T11:52:54.704Z,83.63
2017-10-25T11:53:54.707Z,83.25
2017-10-25T11:54:54.702Z,83.92
2017-10-25T11:55:54.695Z,84.21
2017-10-25T11:56:54.712Z,84.21
2017-10-25T11:57:54.706Z,84.11
2017-10-25T11:58:54.706Z,84.01
2017-10-25T11:59:54.707Z,84.30
2017-10-25T12:00:54.706Z,83.34
2017-10-25T12:01:54.713Z,84.50
2017-10-25T12:02:54.709Z,84.69
2017-10-25T12:03:54.727Z,85.36
2017-10-25T12:04:54.712Z,85.32
2017-10-25T12:05:54.710Z,85.41
2017-10-25T12:06:54.715Z,85.94
2017-10-25T12:07:54.714Z,84.69
2017-10-25T12:08:54.720Z,84.59
2017-10-25T12:09:54.718Z,84.21
2017-10-25T12:10:54.714Z,84.11
2017-10-25T12:11:54.716Z,84.40
2017-10-25T12:12:54.719Z,84.98
2017-10-25T12:13:54.716Z,85.07
2017-10-25T12:14:54.718Z,84.50
2017-10-25T12:15:54.718Z,84.98
2017-10-25T12:16:54.718Z,85.32
2017-10-25T12:17:54.719Z,84.98
2017-10-25T12:18:54.721Z,84.50
2017-10-25T12:19:54.719Z,84.45
2017-10-25T12:20:54.723Z,84.78
2017-10-25T12:21:54.730Z,84.01
2017-10-25T12:22:54.720Z,82.96
2017-10-25T12:23:54.735Z,83.53
2017-10-25T12:24:54.720Z,83.92
2017-10-25T12:25:54.720Z,83.67
2017-10-25T12:26:54.722Z,83.39
2017-10-25T12:27:54.725Z,82.14
2017-10-25T12:28:54.723Z,80.30
2017-10-25T12:29:54.722Z,78.71
2017-10-25T12:30:54.722Z,78.33
2017-10-25T12:31:54.723Z,75.54
2017-10-25T12:32:54.726Z,74.29
2017-10-25T12:33:54.724Z,74.67
2017-10-25T12:34:54.725Z,74.48
2017-10-25T12:35:54.724Z,73.61
2017-10-25T12:36:54.724Z,74.09
2017-10-25T12:37:54.726Z,73.71
2017-10-25T12:38:54.726Z,72.45
2017-10-25T12:39:54.727Z,73.42
2017-10-25T12:40:54.729Z,73.22
2017-10-25T12:41:54.728Z,72.65
2017-10-25T12:42:54.729Z,71.97
2017-10-25T12:43:54.732Z,72.11
2017-10-25T12:44:54.732Z,72.97
2017-10-25T12:45:54.735Z,72.01
2017-10-25T12:46:54.732Z,71.66
2017-10-25T12:47:54.734Z,70.70
2017-10-25T12:48:54.735Z,68.96
2017-10-25T12:49:54.733Z,68.87
2017-10-25T12:50:54.735Z,68.68
2017-10-25T12:51:54.736Z,67.13
2017-10-25T12:52:54.738Z,67.07
2017-10-25T12:53:54.736Z,67.07
2017-10-25T12:54:54.738Z,68.23
2017-10-25T12:55:54.740Z,67.55
2017-10-25T12:56:54.757Z,67.84
2017-10-25T12:57:54.742Z,67.46
2017-10-25T12:58:54.740Z,67.74
2017-10-25T12:59:54.749Z,69.60
2017-10-25T13:00:54.747Z,70.47
2017-10-25T13:01:54.747Z,69.41
2017-10-25T13:02:54.748Z,69.93
2017-10-25T13:03:54.749Z,68.58
2017-10-25T13:04:55.267Z,68.90
2017-10-25T13:05:54.752Z,67.65
2017-10-25T13:06:54.750Z,67.88
2017-10-25T13:07:54.752Z,65.56
2017-10-25T13:08:54.755Z,64.79
2017-10-25T13:09:54.752Z,65.75
2017-10-25T13:10:54.757Z,67.20
2017-10-25T13:11:54.757Z,66.91
2017-10-25T13:12:54.758Z,65.66
2017-10-25T13:13:54.757Z,66.43
2017-10-25T13:14:54.761Z,65.27
2017-10-25T13:15:54.767Z,64.98
2017-10-25T13:16:54.783Z,65.75
2017-10-25T13:17:54.760Z,65.08
2017-10-25T13:18:54.765Z,65.63
2017-10-25T13:19:54.772Z,66.78
2017-10-25T13:20:54.771Z,67.26
2017-10-25T13:21:54.768Z,65.72
2017-10-25T13:22:54.771Z,65.81
2017-10-25T13:23:54.773Z,65.63
2017-10-25T13:24:54.774Z,65.63
2017-10-25T13:25:54.773Z,65.72
2017-10-25T13:26:54.782Z,65.81
2017-10-25T13:27:54.777Z,66.01
2017-10-25T13:28:54.777Z,65.05
2017-10-25T13:29:54.777Z,64.95
2017-10-25T13:30:54.779Z,66.01
2017-10-25T13:31:54.788Z,66.85
2017-10-25T13:32:54.783Z,66.55
2017-10-25T13:33:54.784Z,66.46
2017-10-25T13:34:54.784Z,66.49
2017-10-25T13:35:54.786Z,67.61
2017-10-25T13:36:54.785Z,67.03
2017-10-25T13:37:54.787Z,67.23
2017-10-25T13:38:54.788Z,67.36
2017-10-25T13:39:54.790Z,66.59
2017-10-25T13:40:54.788Z,67.13
2017-10-25T13:41:54.791Z,67.65
2017-10-25T13:42:54.792Z,67.33
2017-10-25T13:43:54.794Z,67.13
2017-10-25T13:44:54.796Z,68.10
2017-10-25T13:45:54.802Z,68.19
2017-10-25T13:46:54.798Z,67.68
2017-10-25T13:47:54.797Z,68.19
2017-10-25T13:48:54.800Z,68.29
2017-10-25T13:49:54.800Z,68.00
2017-10-25T13:50:54.805Z,68.19
2017-10-25T13:51:54.805Z,68.00
2017-10-25T13:52:54.805Z,69.15
2017-10-25T13:53:54.806Z,69.02
2017-10-25T13:54:54.805Z,69.31
2017-10-25T13:55:54.806Z,69.99
2017-10-25T13:56:54.809Z,70.43
2017-10-25T13:57:54.809Z,70.53
2017-10-25T13:58:54.809Z,71.01
2017-10-25T13:59:54.812Z,71.30
2017-10-25T14:00:54.813Z,71.88
2017-10-25T14:01:54.814Z,71.49
2017-10-25T14:02:54.831Z,71.69
2017-10-25T14:03:54.821Z,72.55
2017-10-25T14:04:54.819Z,71.49
2017-10-25T14:05:54.817Z,71.97
2017-10-25T14:06:54.819Z,71.30
2017-10-25T14:07:54.832Z,71.36
2017-10-25T14:08:54.828Z,71.84
2017-10-25T14:09:54.821Z,72.90
2017-10-25T14:10:54.825Z,72.52
2017-10-25T14:11:54.826Z,73.28
2017-10-25T14:12:54.825Z,72.23
2017-10-25T14:13:54.825Z,72.13
2017-10-25T14:14:54.843Z,72.71
2017-10-25T14:15:54.830Z,72.80
2017-10-25T14:16:54.830Z,72.90
2017-10-25T14:17:54.828Z,72.71
2017-10-25T14:18:54.831Z,72.90
2017-10-25T14:19:54.856Z,73.47
2017-10-25T14:20:54.835Z,73.28
2017-10-25T14:21:54.837Z,73.28
2017-10-25T14:22:54.835Z,73.86
2017-10-25T14:23:54.839Z,73.00
2017-10-25T14:24:54.840Z,72.90
2017-10-25T14:25:54.839Z,73.00
2017-10-25T14:26:54.847Z,73.77
2017-10-25T14:27:54.842Z,74.34
2017-10-25T14:28:54.844Z,74.25
2017-10-25T14:29:54.844Z,73.63
2017-10-25T14:30:54.844Z,73.83
2017-10-25T14:31:54.848Z,74.02
2017-10-25T14:32:54.848Z,74.69
2017-10-25T14:33:54.846Z,74.50
2017-10-25T14:34:54.848Z,74.88
2017-10-25T14:35:54.850Z,74.40
2017-10-25T14:36:54.852Z,74.60
2017-10-25T14:37:54.851Z,74.40
2017-10-25T14:38:54.851Z,75.07
2017-10-25T14:39:54.854Z,74.50
2017-10-25T14:40:54.857Z,74.30
2017-10-25T14:41:54.852Z,74.40
2017-10-25T14:42:54.855Z,74.79
2017-10-25T14:43:54.862Z,74.88
2017-10-25T14:44:54.855Z,74.30
2017-10-25T14:45:54.854Z,74.60
2017-10-25T14:46:54.855Z,75.27
2017-10-25T14:47:54.855Z,75.07
2017-10-25T14:48:54.860Z,75.07
2017-10-25T14:49:55.095Z,74.11
2017-10-25T14:50:54.870Z,74.85
2017-10-25T14:51:54.858Z,75.37
2017-10-25T14:52:54.856Z,75.17
2017-10-25T14:53:54.859Z,74.60
2017-10-25T14:54:54.859Z,74.30
2017-10-25T14:55:54.858Z,75.04
2017-10-25T14:56:54.860Z,75.04
2017-10-25T14:57:54.855Z,74.50
2017-10-25T14:58:54.857Z,75.56
2017-10-25T14:59:54.861Z,75.42
2017-10-25T15:00:54.862Z,75.52
2017-10-25T15:01:54.867Z,75.81
2017-10-25T15:02:54.865Z,75.52
2017-10-25T15:03:54.862Z,75.62
2017-10-25T15:04:54.860Z,75.62
2017-10-25T15:05:54.863Z,76.67
2017-10-25T15:06:54.867Z,75.90
2017-10-25T15:07:54.862Z,76.34
2017-10-25T15:08:54.876Z,76.77
2017-10-25T15:09:54.861Z,76.73
2017-10-25T15:10:54.871Z,75.87
2017-10-25T15:11:54.862Z,76.54
2017-10-25T15:12:54.869Z,76.34
2017-10-25T15:13:54.860Z,77.11
2017-10-25T15:14:54.859Z,77.40
2017-10-25T15:15:54.861Z,77.88
2017-10-25T15:16:54.860Z,77.69
2017-10-25T15:17:54.868Z,77.31
2017-10-25T15:18:54.862Z,77.21
2017-10-25T15:19:54.861Z,77.01
2017-10-25T15:20:54.865Z,77.98
2017-10-25T15:21:54.863Z,78.45
2017-10-25T15:22:54.861Z,77.40
2017-10-25T15:23:54.861Z,78.08
2017-10-25T15:24:54.864Z,78.65
2017-10-25T15:25:54.851Z,78.45
2017-10-25T15:26:54.863Z,79.19
2017-10-25T15:27:54.860Z,78.90
2017-10-25T15:28:54.860Z,78.99
2017-10-25T15:29:54.869Z,79.67
2017-10-25T15:30:54.866Z,79.47
2017-10-25T15:31:54.855Z,79.96
2017-10-25T15:32:54.854Z,80.34
2017-10-25T15:33:54.863Z,80.34
2017-10-25T15:34:54.857Z,79.67
2017-10-25T15:35:54.864Z,79.96
2017-10-25T15:36:54.862Z,80.43
2017-10-25T15:37:54.887Z,80.63
2017-10-25T15:38:54.845Z,81.26
2017-10-25T15:39:54.860Z,80.68
2017-10-25T15:40:54.872Z,81.01
2017-10-25T15:41:54.859Z,80.58
2017-10-25T15:42:54.856Z,81.54
2017-10-25T15:43:54.854Z,81.26
2017-10-25T15:44:54.845Z,81.54
2017-10-25T15:45:54.865Z,81.45
2017-10-25T15:46:54.840Z,81.64
2017-10-25T15:47:54.851Z,82.12
2017-10-25T15:48:54.853Z,81.84
2017-10-25T15:49:54.842Z,82.31
2017-10-25T15:50:54.846Z,82.79
2017-10-25T15:51:54.842Z,82.60
2017-10-25T15:52:54.850Z,83.08
2017-10-25T15:53:54.840Z,83.52
2017-10-25T15:54:54.842Z,83.52
2017-10-25T15:55:54.841Z,83.42
2017-10-25T15:56:54.842Z,83.33
2017-10-25T15:57:54.835Z,83.52
2017-10-25T15:58:54.836Z,83.91
2017-10-25T15:59:54.836Z,83.91
2017-10-25T16:00:54.838Z,84.48
2017-10-25T16:01:54.836Z,84.00
2017-10-25T16:02:54.833Z,84.58
2017-10-25T16:03:54.834Z,84.38
2017-10-25T16:04:54.835Z,84.86
2017-10-25T16:05:54.828Z,84.77
2017-10-25T16:06:54.828Z,85.34
2017-10-25T16:07:54.827Z,85.78
2017-10-25T16:08:54.831Z,85.39
2017-10-25T16:09:54.820Z,85.68
2017-10-25T16:10:54.818Z,85.68
2017-10-25T16:11:54.821Z,85.78
2017-10-25T16:12:54.817Z,85.30
2017-10-25T16:13:54.820Z,85.58
2017-10-25T16:14:54.813Z,85.49
2017-10-25T16:15:54.817Z,86.35
2017-10-25T16:16:54.816Z,86.16
2017-10-25T16:17:54.812Z,86.45
2017-10-25T16:18:54.811Z,86.45
2017-10-25T16:19:54.821Z,85.88
2017-10-25T16:20:54.805Z,86.21
2017-10-25T16:21:54.805Z,86.64
2017-10-25T16:22:54.808Z,86.69
2017-10-25T16:23:54.803Z,86.41
2017-10-25T16:24:54.801Z,86.60
2017-10-25T16:25:54.798Z,87.08
2017-10-25T16:26:54.799Z,87.08
2017-10-25T16:27:54.796Z,87.27
2017-10-25T16:28:54.800Z,86.88
2017-10-25T16:29:54.801Z,87.27
2017-10-25T16:30:54.791Z,86.79
2017-10-25T16:31:54.789Z,86.88
2017-10-25T16:32:54.803Z,86.50
2017-10-25T16:33:54.782Z,87.65
2017-10-25T16:34:54.789Z,87.46
2017-10-25T16:35:54.784Z,87.65
2017-10-25T16:36:54.780Z,87.46
2017-10-25T16:37:54.778Z,87.46
2017-10-25T16:38:54.777Z,87.37
2017-10-25T16:39:54.774Z,87.27
2017-10-25T16:40:54.773Z,87.55
2017-10-25T16:41:54.771Z,87.84
2017-10-25T16:42:54.770Z,87.46
2017-10-25T16:43:54.768Z,87.46
2017-10-25T16:44:54.770Z,88.23
2017-10-25T16:45:54.764Z,87.94
2017-10-25T16:46:54.767Z,88.51
2017-10-25T16:47:54.759Z,87.94
2017-10-25T16:48:54.763Z,88.32
2017-10-25T16:49:54.766Z,88.23
2017-10-25T16:50:54.756Z,88.80
2017-10-25T16:51:54.753Z,88.47
2017-10-25T16:52:54.796Z,88.56
2017-10-25T16:53:54.747Z,89.14
2017-10-25T16:54:54.751Z,89.23
2017-10-25T16:55:54.744Z,89.23
2017-10-25T16:56:54.742Z,89.52
2017-10-25T16:57:54.744Z,89.62
2017-10-25T16:58:54.736Z,89.72
2017-10-25T16:59:54.736Z,89.52
2017-10-25T17:00:54.733Z,89.62
2017-10-25T17:01:54.730Z,89.52
2017-10-25T17:02:54.726Z,89.62
2017-10-25T17:03:54.728Z,89.72
2017-10-25T17:04:54.725Z,89.52
2017-10-25T17:05:54.719Z,89.52
2017-10-25T17:06:54.724Z,89.33
2017-10-25T17:07:54.721Z,88.66
2017-10-25T17:08:54.715Z,89.14
2017-10-25T17:09:54.711Z,88.66
2017-10-25T17:10:54.713Z,88.56
2017-10-25T17:11:54.711Z,88.47
2017-10-25T17:12:54.707Z,88.76
2017-10-25T17:13:54.706Z,88.66
2017-10-25T17:14:54.704Z,89.33
2017-10-25T17:15:54.701Z,89.33
2017-10-25T17:16:54.698Z,88.76
2017-10-25T17:17:54.695Z,88.76
2017-10-25T17:18:54.694Z,88.95
2017-10-25T17:19:54.690Z,89.14
2017-10-25T17:20:54.693Z,89.00
2017-10-25T17:21:54.695Z,89.23
2017-10-25T17:23:54.682Z,89.48
2017-10-25T17:24:54.680Z,89.29
2017-10-25T17:25:54.677Z,89.38
2017-10-25T17:26:54.676Z,89.67
2017-10-25T17:27:54.671Z,89.76
2017-10-25T17:28:54.678Z,89.48
2017-10-25T17:30:15.675Z,89.48
2017-10-25T17:30:54.665Z,89.19
2017-10-25T17:31:54.661Z,89.48
2017-10-25T17:33:54.663Z,89.76
2017-10-25T17:34:54.667Z,89.67
2017-10-25T17:36:15.671Z,89.86
2017-10-25T17:36:54.660Z,89.95
2017-10-25T17:37:54.678Z,89.76
2017-10-25T17:39:15.663Z,89.76
2017-10-25T17:39:54.764Z,90.20
2017-10-25T17:41:15.654Z,90.01
2017-10-25T17:41:54.645Z,90.58
2017-10-25T17:42:54.642Z,90.39
2017-10-25T17:44:15.648Z,90.48
2017-10-25T17:44:54.640Z,90.34
2017-10-25T17:46:15.640Z,90.67
2017-10-25T17:46:54.636Z,90.67
2017-10-25T17:47:54.629Z,90.77
2017-10-25T17:49:15.634Z,90.67
2017-10-25T17:49:54.621Z,91.25
2017-10-25T17:51:15.628Z,90.96
2017-10-25T17:51:54.614Z,90.77
2017-10-25T17:52:54.622Z,91.16
2017-10-25T17:54:15.617Z,90.67
2017-10-25T17:54:54.610Z,91.06
2017-10-25T17:56:15.620Z,90.87
2017-10-25T17:56:54.612Z,91.83
2017-10-25T17:57:54.611Z,91.92
2017-10-25T17:59:15.613Z,91.16
2017-10-25T17:59:54.604Z,90.96
2017-10-25T18:01:15.622Z,90.96
2017-10-25T18:01:54.590Z,90.96
2017-10-25T18:02:54.605Z,90.87
2017-10-25T18:04:15.593Z,91.16
2017-10-25T18:04:54.588Z,90.67
2017-10-25T18:06:15.589Z,91.16
2017-10-25T18:06:54.578Z,92.02
2017-10-25T18:07:54.572Z,92.02
2017-10-25T18:09:15.586Z,91.63
2017-10-25T18:09:54.569Z,91.44
2017-10-25T18:11:15.576Z,91.83
2017-10-25T18:11:54.605Z,92.21
2017-10-25T18:12:54.556Z,91.88
2017-10-25T18:14:15.571Z,92.11
2017-10-25T18:14:54.566Z,92.07
2017-10-25T18:16:15.558Z,92.88
2017-10-25T18:16:54.555Z,92.74
2017-10-25T18:17:54.550Z,92.45
2017-10-25T18:19:15.731Z,92.74
2017-10-25T18:19:54.675Z,92.54
2017-10-25T18:21:15.546Z,92.74
2017-10-25T18:21:54.551Z,92.74
2017-10-25T18:22:54.530Z,92.54
2017-10-25T18:24:15.539Z,92.83
2017-10-25T18:24:54.541Z,92.93
2017-10-25T18:26:15.527Z,92.74
2017-10-25T18:26:54.526Z,92.93
2017-10-25T18:27:54.518Z,93.12
2017-10-25T18:29:15.528Z,92.74
2017-10-25T18:29:54.516Z,92.64
2017-10-25T18:31:15.514Z,92.74
2017-10-25T18:31:54.503Z,93.50
2017-10-25T18:32:54.504Z,93.12
2017-10-25T18:34:15.505Z,93.79
2017-10-25T18:34:54.497Z,93.50
2017-10-25T18:36:15.504Z,93.60
2017-10-25T18:36:54.484Z,93.31
2017-10-25T18:37:54.489Z,93.50
2017-10-25T18:39:15.493Z,93.50
2017-10-25T18:39:54.549Z,93.31
2017-10-25T18:41:16.950Z,93.21
2017-10-25T18:41:54.477Z,93.02
2017-10-25T18:42:54.472Z,93.60
2017-10-25T18:44:15.475Z,93.40
2017-10-25T18:44:54.472Z,93.79
2017-10-25T18:46:15.469Z,93.69
2017-10-25T18:46:54.457Z,93.60
2017-10-25T18:47:54.464Z,93.79
2017-10-25T18:49:15.460Z,93.98
2017-10-25T18:49:54.646Z,94.07
2017-10-25T18:51:15.452Z,94.17
2017-10-25T18:51:54.455Z,94.17
2017-10-25T18:52:54.449Z,94.17
2017-10-25T18:54:15.445Z,93.98
2017-10-25T18:54:54.434Z,94.26
2017-10-25T18:56:15.440Z,93.88
2017-10-25T18:56:54.437Z,94.17
2017-10-25T18:57:54.424Z,94.26
2017-10-25T18:59:15.427Z,94.26
2017-10-25T18:59:54.416Z,93.88
2017-10-25T19:01:15.425Z,94.26
2017-10-25T19:01:54.415Z,93.98
2017-10-25T19:02:54.407Z,94.17
2017-10-25T19:04:15.418Z,94.17
2017-10-25T19:04:54.403Z,93.98
2017-10-25T19:06:15.411Z,94.26
2017-10-25T19:06:54.401Z,93.88
2017-10-25T19:07:54.401Z,93.88
2017-10-25T19:09:15.397Z,93.88
2017-10-25T19:09:54.384Z,94.12
2017-10-25T19:11:15.390Z,94.70
2017-10-25T19:11:54.385Z,94.70
2017-10-25T19:12:54.379Z,94.51
2017-10-25T19:14:15.376Z,94.89
2017-10-25T19:14:54.371Z,94.51
2017-10-25T19:16:15.378Z,94.41
2017-10-25T19:16:54.369Z,94.41
2017-10-25T19:17:54.360Z,94.41
2017-10-25T19:19:15.369Z,94.60
2017-10-25T19:19:54.354Z,94.70
2017-10-25T19:21:15.361Z,94.51
2017-10-25T19:21:54.347Z,94.41
2017-10-25T19:22:54.343Z,94.22
2017-10-25T19:24:15.351Z,94.51
2017-10-25T19:24:54.339Z,94.12
2017-10-25T19:26:15.341Z,94.22
2017-10-25T19:26:54.330Z,94.51
2017-10-25T19:27:54.332Z,94.22
2017-10-25T19:29:15.351Z,94.41
2017-10-25T19:29:54.320Z,94.89
2017-10-25T19:31:15.327Z,94.31
2017-10-25T19:31:54.316Z,94.12
2017-10-25T19:32:54.313Z,94.60
2017-10-25T19:34:15.312Z,94.79
2017-10-25T19:34:54.307Z,94.98
2017-10-25T19:36:15.310Z,94.60
2017-10-25T19:36:54.306Z,94.31
2017-10-25T19:37:54.291Z,94.51
2017-10-25T19:39:15.300Z,94.98
2017-10-25T19:39:54.289Z,94.89
2017-10-25T19:41:15.292Z,94.79
2017-10-25T19:41:54.285Z,95.07
2017-10-25T19:42:54.278Z,94.60
2017-10-25T19:44:15.964Z,94.98
2017-10-25T19:44:54.299Z,94.70
2017-10-25T19:46:15.275Z,94.02
2017-10-25T19:46:54.270Z,94.31
2017-10-25T19:47:54.263Z,94.51
2017-10-25T19:49:15.278Z,94.22
2017-10-25T19:49:54.255Z,95.36
2017-10-25T19:51:15.265Z,94.98
2017-10-25T19:51:54.250Z,95.07
2017-10-25T19:52:54.248Z,95.36
2017-10-25T19:54:15.259Z,95.75
2017-10-25T19:54:54.252Z,95.51
2017-10-25T19:56:15.243Z,96.03
2017-10-25T19:56:54.235Z,95.70
2017-10-25T19:57:54.227Z,96.22
2017-10-25T19:59:15.233Z,95.94
2017-10-25T19:59:54.223Z,95.89
2017-10-25T20:01:15.228Z,96.17
2017-10-25T20:01:54.214Z,96.08
2017-10-25T20:02:54.222Z,96.46
2017-10-25T20:04:15.219Z,96.56
2017-10-25T20:04:54.202Z,96.37
2017-10-25T20:06:15.210Z,96.75
2017-10-25T20:06:54.198Z,97.03
2017-10-25T20:07:54.192Z,96.75
2017-10-25T20:09:15.197Z,96.94
2017-10-25T20:09:54.187Z,97.13
2017-10-25T20:11:15.192Z,97.23
2017-10-25T20:11:54.180Z,96.94
2017-10-25T20:12:54.179Z,97.03
2017-10-25T20:14:15.180Z,97.42
2017-10-25T20:14:54.168Z,97.52
2017-10-25T20:16:15.177Z,98.08
2017-10-25T20:16:54.168Z,97.89
2017-10-25T20:17:54.160Z,97.99
2017-10-25T20:19:15.166Z,97.99
2017-10-25T20:19:54.162Z,97.89
2017-10-25T20:21:15.156Z,98.23
2017-10-25T20:21:54.144Z,97.94
2017-10-25T20:22:54.146Z,98.13
2017-10-25T20:24:15.145Z,97.66
2017-10-25T20:24:54.133Z,98.03
2017-10-25T20:26:15.142Z,99.08
2017-10-25T20:26:54.136Z,98.71
2017-10-25T20:27:54.124Z,98.32
2017-10-25T20:29:15.131Z,99.08
2017-10-25T20:29:54.115Z,99.23
2017-10-25T20:31:15.121Z,99.47
2017-10-25T20:31:54.111Z,98.85
2017-10-25T20:32:54.110Z,99.42
2017-10-25T20:34:15.108Z,99.32
2017-10-25T20:34:54.097Z,99.52
2017-10-25T20:36:15.102Z,99.90
2017-10-25T20:36:54.105Z,99.52
2017-10-25T20:37:54.085Z,99.80
2017-10-25T20:39:15.092Z,99.99
2017-10-25T20:39:54.081Z,99.71
2017-10-25T20:41:15.085Z,99.99
2017-10-25T20:41:54.074Z,99.99
2017-10-25T20:42:54.067Z,99.99
2017-10-25T20:44:15.073Z,99.99
2017-10-25T20:44:54.058Z,99.99
2017-10-25T20:46:15.065Z,99.99
2017-10-25T20:46:54.054Z,99.99
2017-10-25T20:47:54.048Z,99.99
2017-10-25T20:49:15.055Z,99.99
2017-10-25T20:49:54.040Z,99.99
2017-10-25T20:51:15.069Z,99.99
2017-10-25T20:51:54.037Z,99.99
2017-10-25T20:52:54.033Z,99.99
2017-10-25T20:54:15.035Z,99.99
2017-10-25T20:54:54.020Z,99.99
2017-10-25T20:56:15.025Z,99.99
2017-10-25T20:56:54.013Z,99.99
2017-10-25T20:57:54.010Z,99.99
2017-10-25T20:59:15.014Z,99.99
2017-10-25T20:59:54.008Z,99.99
2017-10-25T21:01:15.012Z,99.99
2017-10-25T21:01:53.992Z,99.99
2017-10-25T21:02:54.016Z,99.99
2017-10-25T21:04:14.997Z,99.99
2017-10-25T21:04:53.983Z,99.99
2017-10-25T21:06:14.983Z,99.99
2017-10-25T21:06:53.979Z,99.99
2017-10-25T21:07:54.059Z,99.99
2017-10-25T21:09:14.974Z,99.99
2017-10-25T21:09:53.960Z,99.99
2017-10-25T21:11:14.966Z,99.99
2017-10-25T21:11:53.966Z,99.99
2017-10-25T21:12:53.985Z,99.99
2017-10-25T21:14:14.961Z,99.99
2017-10-25T21:14:53.944Z,99.99
2017-10-25T21:16:14.950Z,99.99
2017-10-25T21:16:53.938Z,99.99
2017-10-25T21:17:54.017Z,99.99
2017-10-25T21:19:14.932Z,99.99
2017-10-25T21:19:53.930Z,99.99
2017-10-25T21:21:14.925Z,99.99
2017-10-25T21:21:53.915Z,99.99
2017-10-25T21:22:54.010Z,99.99
2017-10-25T21:24:14.920Z,99.99
2017-10-25T21:24:53.909Z,99.99
2017-10-25T21:26:14.899Z,99.99
2017-10-25T21:26:53.903Z,99.99
2017-10-25T21:27:53.968Z,99.99
2017-10-25T21:29:14.892Z,99.99
2017-10-25T21:29:53.883Z,99.99
2017-10-25T21:31:14.883Z,99.99
2017-10-25T21:31:53.878Z,99.99
2017-10-25T21:32:54.007Z,99.99
2017-10-25T21:34:14.873Z,99.99
2017-10-25T21:34:53.863Z,99.99
2017-10-25T21:36:14.860Z,99.99
2017-10-25T21:36:53.857Z,99.99
2017-10-25T21:37:53.904Z,99.99
2017-10-25T21:39:14.871Z,99.99
2017-10-25T21:39:53.854Z,99.99
2017-10-25T21:41:14.843Z,99.99
2017-10-25T21:41:53.836Z,99.99
2017-10-25T21:42:53.879Z,99.99
2017-10-25T21:44:14.836Z,99.99
2017-10-25T21:44:53.824Z,99.99
2017-10-25T21:46:14.826Z,99.99
2017-10-25T21:46:53.815Z,99.99
2017-10-25T21:47:53.838Z,99.99
2017-10-25T21:49:14.813Z,99.99
2017-10-25T21:49:53.804Z,99.99
2017-10-25T21:51:14.806Z,99.99
2017-10-25T21:51:53.787Z,99.99
2017-10-25T21:52:53.853Z,99.99
2017-10-25T21:54:14.792Z,99.99
2017-10-25T21:54:53.782Z,99.99
2017-10-25T21:56:14.777Z,99.99
2017-10-25T21:56:53.839Z,99.99
2017-10-25T21:57:53.854Z,99.99
2017-10-25T21:59:14.767Z,99.99
2017-10-25T21:59:53.755Z,99.99
2017-10-25T22:01:14.766Z,99.99
2017-10-25T22:01:53.747Z,99.99
2017-10-25T22:02:53.829Z,99.99
2017-10-25T22:04:14.748Z,99.99
2017-10-25T22:04:53.745Z,99.99
2017-10-25T22:06:14.741Z,99.99
2017-10-25T22:06:53.724Z,99.99
2017-10-25T22:07:53.749Z,99.99
2017-10-25T22:09:14.729Z,99.99
2017-10-25T22:09:53.727Z,99.99
2017-10-25T22:11:14.715Z,99.99
2017-10-25T22:11:53.704Z,99.99
2017-10-25T22:12:53.715Z,99.99
2017-10-25T22:14:14.706Z,99.99
2017-10-25T22:14:53.696Z,99.99
2017-10-25T22:16:14.701Z,99.99
2017-10-25T22:16:53.684Z,99.99
2017-10-25T22:17:53.712Z,99.99
2017-10-25T22:19:14.683Z,99.99
2017-10-25T22:19:53.670Z,99.99
2017-10-25T22:21:14.676Z,99.99
2017-10-25T22:21:53.663Z,99.99
2017-10-25T22:22:53.710Z,99.99
2017-10-25T22:24:14.668Z,99.99
2017-10-25T22:24:53.649Z,99.99
2017-10-25T22:26:14.655Z,99.99
2017-10-25T22:26:53.636Z,99.99
2017-10-25T22:27:53.676Z,99.99
2017-10-25T22:29:14.643Z,99.99
2017-10-25T22:29:53.626Z,99.99
2017-10-25T22:31:55.070Z,99.99
2017-10-25T22:32:53.980Z,99.99
2017-10-25T22:34:14.619Z,99.99
2017-10-25T22:34:53.602Z,99.99
2017-10-25T22:36:14.614Z,99.99
2017-10-25T22:36:53.596Z,99.99
2017-10-25T22:37:55.136Z,99.99
2017-10-25T22:39:14.595Z,99.99
2017-10-25T22:39:53.585Z,99.99
2017-10-25T22:41:14.585Z,99.99
2017-10-25T22:41:53.578Z,99.99
2017-10-25T22:42:53.591Z,99.99
2017-10-25T22:44:14.576Z,99.99
2017-10-25T22:44:53.573Z,99.99
2017-10-25T22:46:14.565Z,99.99
2017-10-25T22:46:53.554Z,99.99
2017-10-25T22:47:53.548Z,99.99
2017-10-25T22:49:14.553Z,99.99
2017-10-25T22:49:53.543Z,99.99
2017-10-25T22:51:14.542Z,99.99
2017-10-25T22:51:53.540Z,99.99
2017-10-25T22:52:53.533Z,99.99
2017-10-25T22:54:14.528Z,99.99
2017-10-25T22:54:53.526Z,99.99
2017-10-25T22:56:14.524Z,99.99
2017-10-25T22:56:53.513Z,99.99
2017-10-25T22:57:53.583Z,99.99
2017-10-25T22:59:14.514Z,99.99
2017-10-25T22:59:53.499Z,99.99
2017-10-25T23:01:14.511Z,99.99
2017-10-25T23:01:53.489Z,99.99
2017-10-25T23:02:53.592Z,99.99
2017-10-25T23:04:14.501Z,99.99
2017-10-25T23:04:53.472Z,99.99
2017-10-25T23:06:14.487Z,99.99
2017-10-25T23:06:53.467Z,99.99
2017-10-25T23:07:53.571Z,99.99
2017-10-25T23:09:14.478Z,99.99
2017-10-25T23:09:53.458Z,99.99
2017-10-25T23:11:14.459Z,99.99
2017-10-25T23:11:53.449Z,99.99
2017-10-25T23:12:53.504Z,99.99
2017-10-25T23:14:14.447Z,99.99
2017-10-25T23:14:53.430Z,99.99
2017-10-25T23:16:14.433Z,99.99
2017-10-25T23:16:53.426Z,99.99
2017-10-25T23:17:53.553Z,99.99
2017-10-25T23:19:14.426Z,99.99
2017-10-25T23:19:53.409Z,99.99
2017-10-25T23:21:14.410Z,99.99
2017-10-25T23:21:53.394Z,99.99
2017-10-25T23:22:53.447Z,99.99
2017-10-25T23:24:14.398Z,99.99
2017-10-25T23:24:53.387Z,99.99
2017-10-25T23:26:14.389Z,99.99
2017-10-25T23:26:53.376Z,99.99